createdAt,value
2023-01-25T00:00:17.789Z,7.4
2023-01-25T00:01:24.982Z,6.9
2023-01-25T00:02:31.970Z,6.4
2023-01-25T00:03:38.935Z,7
2023-01-25T00:04:45.904Z,6.2
2023-01-25T00:05:52.862Z,6.8
2023-01-25T00:07:04.582Z,6.6
2023-01-25T00:08:12.732Z,6.7
2023-01-25T00:09:19.701Z,7.9
2023-01-25T00:10:28.642Z,7.2
2023-01-25T00:11:35.749Z,6.8
2023-01-25T00:12:42.677Z,6.8
2023-01-25T00:13:51.285Z,6.9
2023-01-25T00:15:00.302Z,7
2023-01-25T00:16:07.495Z,7
2023-01-25T00:17:14.977Z,7.6
2023-01-25T00:18:21.886Z,7.2
2023-01-25T00:19:28.849Z,6.7
2023-01-25T00:20:36.303Z,6.9
2023-01-25T00:21:43.250Z,7.2
2023-01-25T00:22:50.195Z,7.3
2023-01-25T00:23:57.323Z,6.9
2023-01-25T00:25:04.775Z,6.8
2023-01-25T00:26:11.890Z,7.6
2023-01-25T00:27:19.363Z,7.3
2023-01-25T00:28:26.345Z,7.5
2023-01-25T00:29:33.538Z,7
2023-01-25T00:30:40.505Z,8
2023-01-25T00:31:47.559Z,7.4
2023-01-25T00:32:59.692Z,7.6
2023-01-25T00:34:09.425Z,7.9
2023-01-25T00:35:26.726Z,8
2023-01-25T00:36:33.788Z,8
2023-01-25T00:37:40.756Z,7.9
2023-01-25T00:38:47.823Z,8.3
2023-01-25T00:39:55.001Z,8.2
2023-01-25T00:41:03.005Z,8.5
2023-01-25T00:42:10.518Z,8.2
2023-01-25T00:43:17.717Z,8.4
2023-01-25T00:44:25.612Z,7.8
2023-01-25T00:45:33.364Z,8.2
2023-01-25T00:46:40.400Z,8.4
2023-01-25T00:47:47.816Z,8.2
2023-01-25T00:48:54.988Z,8.5
2023-01-25T00:50:01.978Z,7.8
2023-01-25T00:51:09.560Z,7.9
2023-01-25T00:52:16.886Z,8.3
2023-01-25T00:53:24.285Z,7.6
2023-01-25T00:54:31.907Z,8
2023-01-25T00:55:39.773Z,8.4
2023-01-25T00:56:47.527Z,7.8
2023-01-25T00:57:57.297Z,7.6
2023-01-25T00:59:04.345Z,7.5
2023-01-25T01:00:12.013Z,7.8
2023-01-25T01:01:19.951Z,7.6
2023-01-25T01:02:27.225Z,7.6
2023-01-25T01:03:34.205Z,7.7
2023-01-25T01:04:41.705Z,7.8
2023-01-25T01:05:48.660Z,7.7
2023-01-25T01:07:00.914Z,7.9
2023-01-25T01:08:07.887Z,7.3
2023-01-25T01:09:15.272Z,7.3
2023-01-25T01:10:22.218Z,7.7
2023-01-25T01:11:29.665Z,7.9
2023-01-25T01:12:37.238Z,7.3
2023-01-25T01:13:44.092Z,7.2
2023-01-25T01:14:52.026Z,6.8
2023-01-25T01:15:59.572Z,6.6
2023-01-25T01:17:07.599Z,6.8
2023-01-25T01:18:14.700Z,7.1
2023-01-25T01:19:21.637Z,6.6
2023-01-25T01:20:28.656Z,7.1
2023-01-25T01:21:37.477Z,6.6
2023-01-25T01:22:44.358Z,7.7
2023-01-25T01:23:52.251Z,7
2023-01-25T01:24:59.184Z,7.5
2023-01-25T01:26:06.224Z,7.2
2023-01-25T01:27:13.129Z,7.1
2023-01-25T01:28:20.024Z,7.5
2023-01-25T01:29:27.497Z,6.9
2023-01-25T01:30:34.492Z,6.7
2023-01-25T01:31:41.539Z,6.2
2023-01-25T01:32:49.887Z,6.3
2023-01-25T01:33:57.705Z,6.3
2023-01-25T01:35:05.181Z,5.8
2023-01-25T01:36:12.363Z,5.8
2023-01-25T01:37:19.773Z,6.3
2023-01-25T01:38:27.026Z,6.3
2023-01-25T01:39:33.979Z,5.6
2023-01-25T01:40:40.830Z,6.1
2023-01-25T01:41:48.657Z,6.7
2023-01-25T01:42:56.544Z,6.4
2023-01-25T01:44:03.822Z,6.3
2023-01-25T01:45:10.738Z,6.6
2023-01-25T01:46:28.327Z,6.5
2023-01-25T01:47:38.456Z,6.8
2023-01-25T01:48:45.862Z,6.2
2023-01-25T01:49:55.531Z,6.4
2023-01-25T01:51:05.683Z,6.2
2023-01-25T01:52:18.373Z,6.6
2023-01-25T01:53:26.164Z,6.2
2023-01-25T01:54:33.235Z,6.4
2023-01-25T01:55:47.073Z,6.1
2023-01-25T01:56:54.011Z,6
2023-01-25T01:58:03.774Z,6.7
2023-01-25T01:59:11.224Z,5.9
2023-01-25T02:00:18.264Z,6.3
2023-01-25T02:01:32.184Z,6
2023-01-25T02:02:39.881Z,6.4
2023-01-25T02:03:47.272Z,6.7
2023-01-25T02:04:54.212Z,5.9
2023-01-25T02:06:01.140Z,6.2
2023-01-25T02:07:09.161Z,6.8
2023-01-25T02:08:19.477Z,6.2
2023-01-25T02:09:26.932Z,6
2023-01-25T02:10:34.112Z,6.2
2023-01-25T02:11:41.108Z,6.1
2023-01-25T02:12:48.971Z,6.4
2023-01-25T02:13:56.193Z,5.9
2023-01-25T02:15:04.297Z,6.1
2023-01-25T02:16:11.655Z,6.6
2023-01-25T02:17:21.992Z,6.5
2023-01-25T02:18:31.838Z,6.3
2023-01-25T02:19:38.928Z,6.2
2023-01-25T02:20:51.132Z,6.1
2023-01-25T02:21:58.210Z,5.8
2023-01-25T02:23:06.148Z,5.4
2023-01-25T02:24:13.225Z,5.2
2023-01-25T02:25:20.102Z,5
2023-01-25T02:26:27.281Z,5.2
2023-01-25T02:27:35.616Z,4.8
2023-01-25T02:28:43.067Z,4.8
2023-01-25T02:29:50.908Z,4.5
2023-01-25T02:30:58.120Z,4.7
2023-01-25T02:32:05.628Z,4.9
2023-01-25T02:33:13.013Z,4.6
2023-01-25T02:34:20.585Z,4.5
2023-01-25T02:35:27.600Z,4.2
2023-01-25T02:36:43.376Z,4.6
2023-01-25T02:37:51.303Z,4.4
2023-01-25T02:38:58.693Z,3.7
2023-01-25T02:40:05.848Z,3.7
2023-01-25T02:41:13.643Z,3.6
2023-01-25T02:42:20.611Z,3.6
2023-01-25T02:43:27.952Z,3.3
2023-01-25T02:44:35.205Z,3.2
2023-01-25T02:45:42.151Z,3.7
2023-01-25T02:46:49.547Z,3.4
2023-01-25T02:47:56.532Z,2.9
2023-01-25T02:49:03.564Z,2.9
2023-01-25T02:50:10.996Z,3.1
2023-01-25T02:51:18.100Z,2.7
2023-01-25T02:52:25.123Z,2.7
2023-01-25T02:53:32.081Z,2.8
2023-01-25T02:54:39.121Z,2.8
2023-01-25T02:55:46.669Z,2.5
2023-01-25T02:56:53.803Z,2.9
2023-01-25T02:58:01.337Z,2.8
2023-01-25T02:59:08.402Z,3
2023-01-25T03:00:15.366Z,2.6
2023-01-25T03:01:22.381Z,3
2023-01-25T03:02:29.911Z,2.8
2023-01-25T03:03:36.771Z,2.7
2023-01-25T03:04:44.372Z,2.7
2023-01-25T03:05:51.599Z,3
2023-01-25T03:06:58.693Z,2.7
2023-01-25T03:08:05.670Z,2.7
2023-01-25T03:09:13.026Z,2.8
2023-01-25T03:10:20.798Z,2.7
2023-01-25T03:11:27.799Z,2.7
2023-01-25T03:12:36.536Z,2.7
2023-01-25T03:13:44.396Z,2.9
2023-01-25T03:14:51.371Z,2.7
2023-01-25T03:15:58.353Z,2.8
2023-01-25T03:17:08.447Z,2.7
2023-01-25T03:18:15.403Z,2.7
2023-01-25T03:19:22.347Z,2.8
2023-01-25T03:20:29.384Z,2.7
2023-01-25T03:21:36.331Z,2.7
2023-01-25T03:22:43.354Z,2.6
2023-01-25T03:23:51.482Z,2.5
2023-01-25T03:24:58.499Z,2.1
2023-01-25T03:26:05.493Z,2.3
2023-01-25T03:27:12.489Z,2.5
2023-01-25T03:28:19.453Z,2.4
2023-01-25T03:29:26.409Z,2
2023-01-25T03:30:34.295Z,2.1
2023-01-25T03:31:41.288Z,2.2
2023-01-25T03:32:49.149Z,1.9
2023-01-25T03:33:57.013Z,2
2023-01-25T03:35:04.152Z,2.3
2023-01-25T03:36:11.799Z,2.2
2023-01-25T03:37:18.869Z,2.2
2023-01-25T03:38:26.669Z,2.5
2023-01-25T03:39:33.677Z,2.9
2023-01-25T03:40:40.588Z,3.2
2023-01-25T03:41:48.614Z,3.1
2023-01-25T03:42:55.678Z,3.1
2023-01-25T03:44:02.616Z,3
2023-01-25T03:45:10.040Z,2.8
2023-01-25T03:46:16.565Z,2.9
2023-01-25T03:47:23.548Z,2.6
2023-01-25T03:48:31.063Z,3
2023-01-25T03:49:38.048Z,2.7
2023-01-25T03:50:44.964Z,2.5
2023-01-25T03:51:51.908Z,2.5
2023-01-25T03:52:58.916Z,2.8
2023-01-25T03:54:06.164Z,2.8
2023-01-25T03:55:13.185Z,2.7
2023-01-25T03:56:20.622Z,3
2023-01-25T03:57:27.899Z,2.9
2023-01-25T03:58:34.925Z,2.8
2023-01-25T03:59:41.856Z,3.2
2023-01-25T04:00:49.124Z,3.2
2023-01-25T04:01:57.191Z,3.3
2023-01-25T04:03:05.024Z,3.7
2023-01-25T04:04:12.065Z,3.5
2023-01-25T04:05:19.242Z,3.2
2023-01-25T04:06:26.318Z,3.9
2023-01-25T04:07:33.467Z,3.8
2023-01-25T04:08:40.457Z,3.7
2023-01-25T04:09:48.361Z,3.6
2023-01-25T04:10:55.836Z,3.6
2023-01-25T04:12:07.897Z,3.9
2023-01-25T04:13:15.388Z,3.3
2023-01-25T04:14:35.245Z,3.6
2023-01-25T04:15:29.864Z,3.3
2023-01-25T04:16:37.406Z,3.6
2023-01-25T04:17:44.460Z,3.5
2023-01-25T04:18:51.402Z,3.8
2023-01-25T04:19:58.300Z,3.5
2023-01-25T04:21:05.345Z,3.7
2023-01-25T04:22:12.256Z,4
2023-01-25T04:23:20.152Z,3.7
2023-01-25T04:24:27.944Z,4
2023-01-25T04:25:34.883Z,3.9
2023-01-25T04:26:41.932Z,3.9
2023-01-25T04:27:48.903Z,3.6
2023-01-25T04:28:56.418Z,3.6
2023-01-25T04:30:04.554Z,3.7
2023-01-25T04:31:13.371Z,3.5
2023-01-25T04:32:21.085Z,3.9
2023-01-25T04:33:27.906Z,4
2023-01-25T04:34:35.070Z,4.2
2023-01-25T04:35:42.084Z,3.7
2023-01-25T04:36:49.367Z,4.1
2023-01-25T04:37:56.616Z,4.4
2023-01-25T04:39:03.548Z,4.4
2023-01-25T04:40:11.912Z,4.2
2023-01-25T04:41:19.000Z,4.3
2023-01-25T04:42:26.174Z,4.2
2023-01-25T04:43:33.359Z,4.1
2023-01-25T04:44:40.328Z,3.9
2023-01-25T04:45:47.608Z,4.3
2023-01-25T04:46:54.440Z,4
2023-01-25T04:48:01.403Z,3.9
2023-01-25T04:49:08.772Z,3.7
2023-01-25T04:50:16.565Z,3.6
2023-01-25T04:51:24.471Z,3.8
2023-01-25T04:52:32.004Z,4.1
2023-01-25T04:53:39.900Z,4
2023-01-25T04:54:46.923Z,3.6
2023-01-25T04:55:53.917Z,3.5
2023-01-25T04:57:00.928Z,3.6
2023-01-25T04:58:08.148Z,3.7
2023-01-25T04:59:16.944Z,3.8
2023-01-25T05:00:24.672Z,4
2023-01-25T05:01:32.900Z,3.9
2023-01-25T05:02:39.802Z,3.9
2023-01-25T05:03:46.877Z,3.8
2023-01-25T05:04:53.812Z,3.9
2023-01-25T05:06:01.219Z,3.8
2023-01-25T05:07:09.128Z,3.9
2023-01-25T05:08:16.047Z,3.8
2023-01-25T05:09:24.355Z,3.7
2023-01-25T05:10:31.322Z,4.2
2023-01-25T05:11:38.482Z,3.9
2023-01-25T05:12:45.606Z,3.8
2023-01-25T05:13:52.571Z,4.2
2023-01-25T05:14:59.587Z,4.1
2023-01-25T05:16:08.419Z,4.4
2023-01-25T05:17:13.652Z,4.2
2023-01-25T05:18:20.695Z,4.1
2023-01-25T05:19:27.753Z,4.2
2023-01-25T05:20:34.778Z,3.9
2023-01-25T05:21:44.420Z,4.5
2023-01-25T05:22:55.831Z,3.9
2023-01-25T05:24:03.293Z,4.2
2023-01-25T05:25:10.819Z,3.8
2023-01-25T05:26:22.745Z,4.4
2023-01-25T05:27:35.329Z,4.2
2023-01-25T05:28:42.315Z,4.1
2023-01-25T05:29:50.008Z,4.1
2023-01-25T05:30:57.001Z,3.4
2023-01-25T05:32:04.229Z,4
2023-01-25T05:33:16.344Z,4
2023-01-25T05:34:24.471Z,3.6
2023-01-25T05:35:31.448Z,3.5
2023-01-25T05:36:38.447Z,3.8
2023-01-25T05:37:46.091Z,3.5
2023-01-25T05:38:53.107Z,3.5
2023-01-25T05:40:00.263Z,4
2023-01-25T05:41:07.928Z,4
2023-01-25T05:42:14.930Z,3.8
2023-01-25T05:43:22.643Z,4.3
2023-01-25T05:44:31.167Z,3.9
2023-01-25T05:45:38.282Z,4
2023-01-25T05:46:45.307Z,4.1
2023-01-25T05:47:52.296Z,3.8
2023-01-25T05:48:59.598Z,4.3
2023-01-25T05:50:08.773Z,4.4
2023-01-25T05:51:14.391Z,4
2023-01-25T05:52:22.427Z,4.1
2023-01-25T05:53:30.337Z,4.2
2023-01-25T05:54:37.606Z,4.4
2023-01-25T05:55:44.573Z,3.8
2023-01-25T05:56:51.462Z,4.3
2023-01-25T05:57:58.476Z,4.4
2023-01-25T05:59:06.041Z,4.6
2023-01-25T06:00:13.900Z,4
2023-01-25T06:01:21.847Z,4.7
2023-01-25T06:02:29.490Z,5.2
2023-01-25T06:03:36.417Z,5.5
2023-01-25T06:04:43.336Z,5.9
2023-01-25T06:05:50.496Z,5.7
2023-01-25T06:06:57.497Z,5.5
2023-01-25T06:08:05.469Z,5.1
2023-01-25T06:09:12.623Z,5.5
2023-01-25T06:10:19.553Z,5.4
2023-01-25T06:11:26.479Z,6
2023-01-25T06:12:33.710Z,6.2
2023-01-25T06:13:41.204Z,5.7
2023-01-25T06:14:49.952Z,6.5
2023-01-25T06:15:57.594Z,6.5
2023-01-25T06:17:04.511Z,6.9
2023-01-25T06:18:11.492Z,7.2
2023-01-25T06:19:18.465Z,7.2
2023-01-25T06:20:26.134Z,7.1
2023-01-25T06:21:34.178Z,8.3
2023-01-25T06:22:41.198Z,8.7
2023-01-25T06:23:48.351Z,7.8
2023-01-25T06:24:55.326Z,7.4
2023-01-25T06:26:03.147Z,7.5
2023-01-25T06:27:10.201Z,7.4
2023-01-25T06:28:19.079Z,7.4
2023-01-25T06:29:26.052Z,7.4
2023-01-25T06:30:33.031Z,6.9
2023-01-25T06:31:40.758Z,6.8
2023-01-25T06:32:47.743Z,6.3
2023-01-25T06:33:54.756Z,6.6
2023-01-25T06:35:02.725Z,6.1
2023-01-25T06:36:10.324Z,6
2023-01-25T06:37:17.155Z,6.2
2023-01-25T06:38:24.154Z,6.2
2023-01-25T06:39:31.358Z,6.5
2023-01-25T06:40:39.232Z,6.3
2023-01-25T06:41:46.771Z,5.8
2023-01-25T06:42:54.581Z,5.4
2023-01-25T06:44:10.077Z,5.7
2023-01-25T06:45:17.108Z,5.3
2023-01-25T06:46:24.324Z,4.7
2023-01-25T06:47:31.392Z,5.8
2023-01-25T06:48:39.227Z,5.1
2023-01-25T06:49:46.806Z,5.4
2023-01-25T06:50:53.770Z,5
2023-01-25T06:52:06.106Z,5.5
2023-01-25T06:53:13.702Z,5
2023-01-25T06:54:21.147Z,4.9
2023-01-25T06:55:28.178Z,4.9
2023-01-25T06:56:35.148Z,5.4
2023-01-25T06:57:42.849Z,5.4
2023-01-25T06:58:49.810Z,5.2
2023-01-25T06:59:56.803Z,5.4
2023-01-25T07:01:04.104Z,5.6
2023-01-25T07:02:16.504Z,4.9
2023-01-25T07:03:23.463Z,5
2023-01-25T07:04:31.306Z,5.1
2023-01-25T07:05:38.967Z,5
2023-01-25T07:06:46.755Z,4.9
2023-01-25T07:07:55.034Z,5
2023-01-25T07:09:02.118Z,5.4
2023-01-25T07:10:13.016Z,5.4
2023-01-25T07:11:19.992Z,5.7
2023-01-25T07:12:27.727Z,5.4
2023-01-25T07:13:35.236Z,5.7
2023-01-25T07:14:42.134Z,5.5
2023-01-25T07:15:49.678Z,5.6
2023-01-25T07:17:03.889Z,6
2023-01-25T07:18:16.093Z,5.8
2023-01-25T07:19:17.067Z,5.9
2023-01-25T07:20:26.265Z,6.2
2023-01-25T07:21:33.430Z,6.2
2023-01-25T07:22:41.050Z,5.8
2023-01-25T07:23:48.463Z,6.3
2023-01-25T07:24:55.835Z,5.7
2023-01-25T07:26:02.774Z,5.5
2023-01-25T07:27:09.600Z,6.5
2023-01-25T07:28:16.541Z,6.1
2023-01-25T07:29:23.572Z,6.1
2023-01-25T07:30:31.323Z,6.4
2023-01-25T07:31:38.349Z,6.4
2023-01-25T07:32:45.211Z,6.6
2023-01-25T07:33:53.087Z,6.1
2023-01-25T07:35:00.144Z,6.5
2023-01-25T07:36:07.208Z,6.1
2023-01-25T07:37:14.119Z,6.3
2023-01-25T07:38:21.371Z,6.3
2023-01-25T07:39:28.911Z,6.7
2023-01-25T07:40:35.822Z,6.4
2023-01-25T07:41:42.864Z,6.7
2023-01-25T07:42:50.380Z,7
2023-01-25T07:43:58.863Z,6.3
2023-01-25T07:45:05.823Z,6.4
2023-01-25T07:46:12.893Z,6.7
2023-01-25T07:47:19.838Z,5.9
2023-01-25T07:48:27.807Z,5.6
2023-01-25T07:49:35.155Z,5.8
2023-01-25T07:50:43.660Z,5.9
2023-01-25T07:51:50.541Z,5.5
2023-01-25T07:52:59.232Z,6.2
2023-01-25T07:54:09.348Z,6.2
2023-01-25T07:55:16.375Z,6.1
2023-01-25T07:56:23.894Z,6.2
2023-01-25T07:57:30.735Z,6.3
2023-01-25T07:58:37.564Z,6.1
2023-01-25T07:59:44.878Z,6.4
2023-01-25T08:00:51.776Z,6.6
2023-01-25T08:01:59.380Z,6.3
2023-01-25T08:03:06.795Z,6.6
2023-01-25T08:04:13.835Z,6.9
2023-01-25T08:05:21.499Z,6.1
2023-01-25T08:06:28.803Z,6.7
2023-01-25T08:07:36.716Z,6.5
2023-01-25T08:08:43.745Z,6.3
2023-01-25T08:09:50.741Z,6.9
2023-01-25T08:10:58.203Z,6.2
2023-01-25T08:12:08.444Z,6.5
2023-01-25T08:13:14.591Z,6.4
2023-01-25T08:14:21.689Z,6.6
2023-01-25T08:15:30.035Z,6
2023-01-25T08:16:36.964Z,6.2
2023-01-25T08:17:44.479Z,5.9
2023-01-25T08:18:52.143Z,6.4
2023-01-25T08:19:59.561Z,6
2023-01-25T08:21:06.507Z,6.2
2023-01-25T08:22:13.488Z,5.9
2023-01-25T08:23:21.835Z,5.9
2023-01-25T08:24:31.134Z,5.6
2023-01-25T08:25:38.403Z,5.9
2023-01-25T08:26:45.883Z,5.8
2023-01-25T08:27:52.850Z,5.9
2023-01-25T08:29:01.313Z,6.1
2023-01-25T08:30:08.203Z,6.3
2023-01-25T08:31:19.111Z,6
2023-01-25T08:32:26.454Z,5.5
2023-01-25T08:33:35.079Z,5.2
2023-01-25T08:34:42.453Z,5.5
2023-01-25T08:35:49.787Z,5.4
2023-01-25T08:36:59.638Z,5.7
2023-01-25T08:38:06.657Z,5.2
2023-01-25T08:39:14.232Z,5.7
2023-01-25T08:40:22.162Z,5.3
2023-01-25T08:41:29.738Z,5.2
2023-01-25T08:42:37.657Z,5.3
2023-01-25T08:43:45.614Z,4.8
2023-01-25T08:44:53.802Z,5.4
2023-01-25T08:46:00.817Z,5.2
2023-01-25T08:47:08.801Z,5
2023-01-25T08:48:16.110Z,5.1
2023-01-25T08:49:23.102Z,5.5
2023-01-25T08:50:30.096Z,5.2
2023-01-25T08:51:37.571Z,5.4
2023-01-25T08:52:44.662Z,5.5
2023-01-25T08:53:51.587Z,5.9
2023-01-25T08:54:58.605Z,5.8
2023-01-25T08:56:07.199Z,5.9
2023-01-25T08:57:14.132Z,5.3
2023-01-25T08:58:21.297Z,5.3
2023-01-25T08:59:28.898Z,5.5
2023-01-25T09:00:36.260Z,5.2
2023-01-25T09:01:44.278Z,5.6
2023-01-25T09:02:51.181Z,5.4
2023-01-25T09:03:58.770Z,5.5
2023-01-25T09:05:05.634Z,5.5
2023-01-25T09:06:15.473Z,5.4
2023-01-25T09:07:23.325Z,5.7
2023-01-25T09:08:31.210Z,5.2
2023-01-25T09:09:38.830Z,5.1
2023-01-25T09:10:45.743Z,4.9
2023-01-25T09:11:52.580Z,5.2
2023-01-25T09:12:59.342Z,4.8
2023-01-25T09:14:06.682Z,4.9
2023-01-25T09:15:13.896Z,4.7
2023-01-25T09:16:21.194Z,4.8
2023-01-25T09:17:33.894Z,4.6
2023-01-25T09:18:41.382Z,5
2023-01-25T09:19:48.332Z,5.1
2023-01-25T09:20:55.689Z,4.9
2023-01-25T09:22:03.018Z,5
2023-01-25T09:23:10.448Z,4.9
2023-01-25T09:24:17.504Z,4.7
2023-01-25T09:25:24.422Z,4.8
2023-01-25T09:26:32.379Z,5.3
2023-01-25T09:27:39.262Z,4.9
2023-01-25T09:28:46.182Z,5
2023-01-25T09:30:01.257Z,5.4
2023-01-25T09:31:19.053Z,5.9
2023-01-25T09:32:09.152Z,5.7
2023-01-25T09:33:16.176Z,5.7
2023-01-25T09:34:23.167Z,5.7
2023-01-25T09:35:30.108Z,5.4
2023-01-25T09:36:37.147Z,5.2
2023-01-25T09:37:44.022Z,5.5
2023-01-25T09:38:51.337Z,5.5
2023-01-25T09:39:58.698Z,6
2023-01-25T09:41:06.152Z,5.5
2023-01-25T09:42:15.424Z,5.4
2023-01-25T09:43:31.882Z,6.1
2023-01-25T09:44:47.374Z,6.6
2023-01-25T09:46:05.003Z,6
2023-01-25T09:47:20.258Z,6.2
2023-01-25T09:48:30.342Z,6.5
2023-01-25T09:49:40.638Z,6.8
2023-01-25T09:50:52.757Z,6.5
2023-01-25T09:52:08.954Z,6.8
2023-01-25T09:53:18.990Z,6.5
2023-01-25T09:54:31.837Z,6.2
2023-01-25T09:55:38.587Z,6
2023-01-25T09:56:46.526Z,6
2023-01-25T09:57:53.994Z,7.2
2023-01-25T09:59:01.130Z,6.5
2023-01-25T10:00:08.992Z,6.5
2023-01-25T10:01:33.080Z,6.7
2023-01-25T10:02:35.740Z,6.7
2023-01-25T10:03:47.726Z,7
2023-01-25T10:05:01.274Z,6.5
2023-01-25T10:06:12.090Z,6.6
2023-01-25T10:07:22.505Z,6.3
2023-01-25T10:08:34.118Z,7.3
2023-01-25T10:09:51.859Z,7.6
2023-01-25T10:11:04.526Z,7
2023-01-25T10:12:12.441Z,7.6
2023-01-25T10:13:19.340Z,7
2023-01-25T10:14:27.977Z,7.4
2023-01-25T10:15:35.297Z,7.7
2023-01-25T10:16:48.159Z,8.2
2023-01-25T10:17:55.481Z,8.1
2023-01-25T10:19:05.178Z,8
2023-01-25T10:20:23.442Z,9.1
2023-01-25T10:21:41.509Z,7.8
2023-01-25T10:22:51.397Z,8.8
2023-01-25T10:24:04.845Z,8.2
2023-01-25T10:25:22.140Z,8.7
2023-01-25T10:26:34.162Z,8.7
2023-01-25T10:27:41.134Z,8.4
2023-01-25T10:28:51.121Z,8.3
2023-01-25T10:30:06.469Z,8.3
2023-01-25T10:31:24.004Z,8.9
2023-01-25T10:32:44.620Z,8.4
2023-01-25T10:33:46.437Z,9.2
2023-01-25T10:34:56.938Z,8.9
2023-01-25T10:36:01.250Z,8.3
2023-01-25T10:37:09.143Z,8.5
2023-01-25T10:38:17.093Z,8.8
2023-01-25T10:39:29.174Z,7.7
2023-01-25T10:40:36.226Z,7.9
2023-01-25T10:41:48.318Z,7.5
2023-01-25T10:43:04.430Z,7.2
2023-01-25T10:44:13.572Z,7.5
2023-01-25T10:45:26.521Z,7.1
2023-01-25T10:46:34.732Z,7.4
2023-01-25T10:47:41.825Z,7.9
2023-01-25T10:48:52.829Z,8.4
2023-01-25T10:50:00.258Z,8.3
2023-01-25T10:51:08.954Z,8.2
2023-01-25T10:52:16.263Z,7.4
2023-01-25T10:53:25.957Z,7.4
2023-01-25T10:54:40.707Z,7.9
2023-01-25T10:55:48.351Z,7.6
2023-01-25T10:57:05.520Z,7.2
2023-01-25T10:58:12.479Z,7.6
2023-01-25T10:59:20.052Z,4.7
2023-01-25T11:00:30.035Z,5.7
2023-01-25T11:01:40.519Z,5.4
2023-01-25T11:02:47.629Z,5.5
2023-01-25T11:03:54.865Z,5.4
2023-01-25T11:05:02.093Z,4.9
2023-01-25T11:06:21.207Z,4.8
2023-01-25T11:07:33.354Z,4.9
2023-01-25T11:08:41.792Z,4.6
2023-01-25T11:09:48.701Z,4.3
2023-01-25T11:10:55.840Z,4.7
2023-01-25T11:12:04.199Z,4.6
2023-01-25T11:13:21.520Z,4.2
2023-01-25T11:14:28.922Z,7.1
2023-01-25T11:15:36.668Z,11
2023-01-25T11:16:46.143Z,12.1
2023-01-25T11:17:53.174Z,8.9
2023-01-25T11:19:09.315Z,7.3
2023-01-25T11:20:28.047Z,5.6
2023-01-25T11:21:35.360Z,4.9
2023-01-25T11:22:42.825Z,4.1
2023-01-25T11:23:52.358Z,4.5
2023-01-25T11:25:07.660Z,4.7
2023-01-25T11:26:26.265Z,4.4
2023-01-25T11:27:34.435Z,5.1
2023-01-25T11:28:41.283Z,5
2023-01-25T11:29:49.326Z,5
2023-01-25T11:31:07.421Z,4.8
2023-01-25T11:32:17.954Z,5.6
2023-01-25T11:33:25.042Z,5.3
2023-01-25T11:34:32.192Z,5.5
2023-01-25T11:35:39.139Z,5.9
2023-01-25T11:36:51.339Z,5.4
2023-01-25T11:38:08.771Z,5.6
2023-01-25T11:39:15.667Z,5.8
2023-01-25T11:40:32.996Z,5.7
2023-01-25T11:41:45.380Z,6.2
2023-01-25T11:42:52.483Z,5.7
2023-01-25T11:44:09.715Z,5.7
2023-01-25T11:45:24.533Z,6.1
2023-01-25T11:46:42.052Z,6
2023-01-25T11:47:57.272Z,5.8
2023-01-25T11:49:14.518Z,5.8
2023-01-25T11:50:27.447Z,6.6
2023-01-25T11:51:35.323Z,6.1
2023-01-25T11:52:45.219Z,6.4
2023-01-25T11:53:58.304Z,6.1
2023-01-25T11:55:11.420Z,6
2023-01-25T11:56:28.779Z,5.7
2023-01-25T11:57:46.345Z,6.1
2023-01-25T11:58:56.488Z,5.7
2023-01-25T12:00:12.818Z,5.8
2023-01-25T12:01:24.733Z,6.8
2023-01-25T12:02:40.196Z,6.6
2023-01-25T12:03:52.431Z,6.8
2023-01-25T12:05:09.596Z,7.1
2023-01-25T12:06:16.679Z,6.8
2023-01-25T12:07:34.100Z,6.3
2023-01-25T12:08:51.030Z,7.2
2023-01-25T12:10:08.971Z,6.5
2023-01-25T12:11:24.107Z,7.4
2023-01-25T12:12:37.480Z,6.4
2023-01-25T12:13:49.700Z,6.2
2023-01-25T12:15:06.563Z,6.7
2023-01-25T12:16:22.022Z,6.8
2023-01-25T12:17:39.613Z,7.4
2023-01-25T12:18:54.644Z,7.2
2023-01-25T12:20:05.292Z,7.4
2023-01-25T12:21:22.999Z,7.5
2023-01-25T12:22:27.773Z,8.1
2023-01-25T12:23:37.964Z,7.7
2023-01-25T12:24:50.019Z,7
2023-01-25T12:26:05.669Z,7.2
2023-01-25T12:27:26.038Z,6.7
2023-01-25T12:28:37.773Z,6.8
2023-01-25T12:29:44.639Z,6.4
2023-01-25T12:30:51.620Z,6.6
2023-01-25T12:31:58.981Z,7.7
2023-01-25T12:33:14.543Z,8.1
2023-01-25T12:34:19.473Z,7.9
2023-01-25T12:35:26.691Z,6.8
2023-01-25T12:36:34.358Z,6.4
2023-01-25T12:37:42.566Z,7.1
2023-01-25T12:38:49.533Z,7.9
2023-01-25T12:40:00.401Z,8
2023-01-25T12:41:09.910Z,7.2
2023-01-25T12:42:28.838Z,6.6
2023-01-25T12:43:36.595Z,6
2023-01-25T12:44:48.656Z,6.1
2023-01-25T12:45:57.342Z,6.8
2023-01-25T12:47:04.161Z,6.2
2023-01-25T12:48:21.812Z,6.8
2023-01-25T12:49:30.614Z,5.5
2023-01-25T12:50:38.690Z,6.7
2023-01-25T12:51:45.979Z,5.9
2023-01-25T12:52:53.065Z,5.7
2023-01-25T12:54:07.924Z,6.8
2023-01-25T12:55:21.277Z,7.5
2023-01-25T12:56:28.761Z,7.6
2023-01-25T12:57:35.771Z,7.2
2023-01-25T12:58:55.008Z,6.3
2023-01-25T13:00:07.658Z,6.2
2023-01-25T13:01:22.827Z,6.6
2023-01-25T13:02:38.092Z,6.7
2023-01-25T13:03:53.169Z,6.7
2023-01-25T13:05:10.603Z,6.4
2023-01-25T13:06:17.816Z,6.3
2023-01-25T13:07:27.722Z,5.7
2023-01-25T13:08:34.970Z,6
2023-01-25T13:09:48.049Z,6.4
2023-01-25T13:11:00.555Z,6.4
2023-01-25T13:12:13.897Z,6.8
2023-01-25T13:13:21.339Z,7.3
2023-01-25T13:14:29.330Z,6.9
2023-01-25T13:15:39.045Z,6.6
2023-01-25T13:16:46.144Z,6.5
2023-01-25T13:17:54.240Z,6.6
2023-01-25T13:19:02.312Z,7.3
2023-01-25T13:20:11.278Z,9.1
2023-01-25T13:21:22.957Z,8.4
2023-01-25T13:22:38.381Z,7
2023-01-25T13:23:48.335Z,5.8
2023-01-25T13:24:56.453Z,6
2023-01-25T13:26:06.652Z,6.5
2023-01-25T13:27:18.864Z,6.3
2023-01-25T13:28:31.154Z,6.1
2023-01-25T13:29:38.756Z,6.8
2023-01-25T13:30:46.766Z,7
2023-01-25T13:31:55.026Z,7.5
2023-01-25T13:33:01.152Z,6.7
2023-01-25T13:34:08.465Z,7.4
2023-01-25T13:35:26.103Z,7.3
2023-01-25T13:36:39.084Z,7
2023-01-25T13:37:46.443Z,7.7
2023-01-25T13:38:53.872Z,6.7
2023-01-25T13:40:08.047Z,6.8
2023-01-25T13:41:07.800Z,6.8
2023-01-25T13:42:17.532Z,6.7
2023-01-25T13:43:27.402Z,7.5
2023-01-25T13:44:34.840Z,7.3
2023-01-25T13:45:42.100Z,8.7
2023-01-25T13:46:49.897Z,8.9
2023-01-25T13:48:02.629Z,8.5
2023-01-25T13:49:09.905Z,8.4
2023-01-25T13:50:17.331Z,8.9
2023-01-25T13:51:30.536Z,9.6
2023-01-25T13:52:38.953Z,8.9
2023-01-25T13:53:46.070Z,9.4
2023-01-25T13:54:59.509Z,10.1
2023-01-25T13:56:07.468Z,10.2
2023-01-25T13:57:14.766Z,9.5
2023-01-25T13:58:24.969Z,9.7
2023-01-25T13:59:32.362Z,10.5
2023-01-25T14:00:40.329Z,9.3
2023-01-25T14:01:53.402Z,9
2023-01-25T14:03:00.489Z,8
2023-01-25T14:04:09.056Z,6.6
2023-01-25T14:05:16.156Z,6.6
2023-01-25T14:06:23.442Z,7.4
2023-01-25T14:07:33.625Z,7.4
2023-01-25T14:08:40.559Z,7.9
2023-01-25T14:09:49.462Z,8.1
2023-01-25T14:10:56.827Z,9.2
2023-01-25T14:12:04.203Z,8.5
2023-01-25T14:13:13.411Z,8.5
2023-01-25T14:14:20.381Z,8.4
2023-01-25T14:15:35.564Z,8.4
2023-01-25T14:16:42.650Z,7.6
2023-01-25T14:17:49.980Z,7.6
2023-01-25T14:19:07.850Z,8.4
2023-01-25T14:20:26.668Z,7.9
2023-01-25T14:21:34.122Z,7.9
2023-01-25T14:22:41.479Z,7
2023-01-25T14:23:51.521Z,8.2
2023-01-25T14:24:59.574Z,7.9
2023-01-25T14:26:16.380Z,7.9
2023-01-25T14:27:29.078Z,8.2
2023-01-25T14:28:38.964Z,7.8
2023-01-25T14:29:46.404Z,7.9
2023-01-25T14:30:53.554Z,8.2
2023-01-25T14:32:00.681Z,8.3
2023-01-25T14:33:07.771Z,9.1
2023-01-25T14:34:20.050Z,8.2
2023-01-25T14:35:41.818Z,7.8
2023-01-25T14:36:40.375Z,8.2
2023-01-25T14:37:47.463Z,8.4
2023-01-25T14:38:54.655Z,7.6
2023-01-25T14:40:02.095Z,8.4
2023-01-25T14:41:09.938Z,7.9
2023-01-25T14:42:28.435Z,7.3
2023-01-25T14:43:35.985Z,7.7
2023-01-25T14:44:43.051Z,8.2
2023-01-25T14:45:50.152Z,7.6
2023-01-25T14:46:59.569Z,8
2023-01-25T14:48:17.616Z,7.8
2023-01-25T14:49:37.060Z,7.9
2023-01-25T14:50:44.047Z,7.6
2023-01-25T14:51:51.190Z,7.7
2023-01-25T14:53:03.427Z,7.5
2023-01-25T14:54:16.879Z,8
2023-01-25T14:55:23.820Z,8
2023-01-25T14:56:31.137Z,7.6
2023-01-25T14:57:38.524Z,7.9
2023-01-25T14:58:50.777Z,7.6
2023-01-25T14:59:53.384Z,7.8
2023-01-25T15:01:00.891Z,7
2023-01-25T15:02:08.123Z,7.3
2023-01-25T15:03:24.147Z,6.9
2023-01-25T15:04:32.392Z,7.5
2023-01-25T15:05:38.503Z,7.2
2023-01-25T15:06:45.552Z,6.9
2023-01-25T15:07:52.661Z,7.4
2023-01-25T15:09:00.130Z,7
2023-01-25T15:10:09.126Z,7.5
2023-01-25T15:11:26.353Z,7.4
2023-01-25T15:12:38.884Z,7.4
2023-01-25T15:13:46.151Z,7.5
2023-01-25T15:14:53.644Z,7.7
2023-01-25T15:16:00.934Z,7
2023-01-25T15:17:08.213Z,7.2
2023-01-25T15:18:16.129Z,7.4
2023-01-25T15:19:33.428Z,6.7
2023-01-25T15:20:40.583Z,6.5
2023-01-25T15:21:48.532Z,7.1
2023-01-25T15:22:56.044Z,7.1
2023-01-25T15:24:13.887Z,6.8
2023-01-25T15:25:24.208Z,6.8
2023-01-25T15:26:30.568Z,6.9
2023-01-25T15:27:37.952Z,7.5
2023-01-25T15:28:45.067Z,7
2023-01-25T15:29:55.561Z,7.1
2023-01-25T15:31:02.613Z,6.8
2023-01-25T15:32:09.564Z,7
2023-01-25T15:33:22.474Z,7.3
2023-01-25T15:34:33.342Z,6.7
2023-01-25T15:35:40.751Z,8.1
2023-01-25T15:36:47.834Z,10
2023-01-25T15:37:56.759Z,9.7
2023-01-25T15:39:04.032Z,11
2023-01-25T15:40:14.396Z,11.1
2023-01-25T15:41:22.616Z,11.4
2023-01-25T15:42:29.788Z,12.1
2023-01-25T15:43:37.983Z,12.9
2023-01-25T15:44:45.791Z,14
2023-01-25T15:45:52.931Z,16
2023-01-25T15:46:59.996Z,17.2
2023-01-25T15:48:08.435Z,16.6
2023-01-25T15:49:15.819Z,17.8
2023-01-25T15:50:29.188Z,17
2023-01-25T15:51:36.186Z,17.1
2023-01-25T15:52:43.308Z,18.7